sensor_id;sensor_type;location;lat;lon;timestamp;temperature;humidity
36132;DHT22;22185;48.738;9.324;2023-02-01T00:01:56;4.80;99.90
36132;DHT22;22185;48.738;9.324;2023-02-01T00:03:57;4.80;99.90
36132;DHT22;22185;48.738;9.324;2023-02-01T00:06:00;4.70;99.90
36132;DHT22;22185;48.738;9.324;2023-02-01T00:08:02;4.70;99.90
36132;DHT22;22185;48.738;9.324;2023-02-01T00:10:05;4.70;99.90
36132;DHT22;22185;48.738;9.324;2023-02-01T00:12:07;4.70;99.90
36132;DHT22;22185;48.738;9.324;2023-02-01T00:14:09;4.70;99.90
36132;DHT22;22185;48.738;9.324;2023-02-01T00:18:13;4.70;99.90
36132;DHT22;22185;48.738;9.324;2023-02-01T00:20:15;4.70;99.90
36132;DHT22;22185;48.738;9.324;2023-02-01T00:22:17;4.70;99.90
36132;DHT22;22185;48.738;9.324;2023-02-01T00:24:19;4.70;99.90
36132;DHT22;22185;48.738;9.324;2023-02-01T00:26:38;4.70;99.90
36132;DHT22;22185;48.738;9.324;2023-02-01T00:28:40;4.70;99.90
36132;DHT22;22185;48.738;9.324;2023-02-01T00:30:42;4.70;99.90
36132;DHT22;22185;48.738;9.324;2023-02-01T00:32:44;4.60;99.90
36132;DHT22;22185;48.738;9.324;2023-02-01T00:34:46;4.60;99.90
36132;DHT22;22185;48.738;9.324;2023-02-01T00:36:47;4.60;99.90
36132;DHT22;22185;48.738;9.324;2023-02-01T00:38:50;4.60;99.90
36132;DHT22;22185;48.738;9.324;2023-02-01T00:40:51;4.70;99.90
36132;DHT22;22185;48.738;9.324;2023-02-01T00:42:53;4.70;99.90
36132;DHT22;22185;48.738;9.324;2023-02-01T00:44:55;4.70;99.90
36132;DHT22;22185;48.738;9.324;2023-02-01T00:46:56;4.70;99.90
36132;DHT22;22185;48.738;9.324;2023-02-01T00:48:58;4.70;99.90
36132;DHT22;22185;48.738;9.324;2023-02-01T00:51:01;4.70;99.90
36132;DHT22;22185;48.738;9.324;2023-02-01T00:53:03;4.70;99.90
36132;DHT22;22185;48.738;9.324;2023-02-01T00:55:05;4.70;99.90
36132;DHT22;22185;48.738;9.324;2023-02-01T00:57:07;4.70;99.90
36132;DHT22;22185;48.738;9.324;2023-02-01T00:59:12;4.70;99.90
36132;DHT22;22185;48.738;9.324;2023-02-01T01:01:20;4.70;99.90
36132;DHT22;22185;48.738;9.324;2023-02-01T01:03:22;4.70;99.90
36132;DHT22;22185;48.738;9.324;2023-02-01T01:05:24;4.70;99.90
36132;DHT22;22185;48.738;9.324;2023-02-01T01:07:27;4.70;99.90
36132;DHT22;22185;48.738;9.324;2023-02-01T01:09:29;4.70;99.90
36132;DHT22;22185;48.738;9.324;2023-02-01T01:11:34;4.70;99.90
36132;DHT22;22185;48.738;9.324;2023-02-01T01:13:36;4.70;99.90
36132;DHT22;22185;48.738;9.324;2023-02-01T01:15:39;4.70;99.90
36132;DHT22;22185;48.738;9.324;2023-02-01T01:17:40;4.70;99.90
36132;DHT22;22185;48.738;9.324;2023-02-01T01:19:42;4.70;99.90
36132;DHT22;22185;48.738;9.324;2023-02-01T01:21:44;4.80;99.90
36132;DHT22;22185;48.738;9.324;2023-02-01T01:23:46;4.70;99.90
36132;DHT22;22185;48.738;9.324;2023-02-01T01:25:48;4.80;99.90
36132;DHT22;22185;48.738;9.324;2023-02-01T01:27:50;4.70;99.90
36132;DHT22;22185;48.738;9.324;2023-02-01T01:29:52;4.70;99.90
36132;DHT22;22185;48.738;9.324;2023-02-01T01:31:54;4.70;99.90
36132;DHT22;22185;48.738;9.324;2023-02-01T01:33:58;4.70;99.90
36132;DHT22;22185;48.738;9.324;2023-02-01T01:36:00;4.70;99.90
36132;DHT22;22185;48.738;9.324;2023-02-01T01:38:02;4.70;99.90
36132;DHT22;22185;48.738;9.324;2023-02-01T01:40:05;4.80;99.90
36132;DHT22;22185;48.738;9.324;2023-02-01T01:42:11;4.70;99.90
36132;DHT22;22185;48.738;9.324;2023-02-01T01:46:53;4.70;99.90
36132;DHT22;22185;48.738;9.324;2023-02-01T01:49:07;4.70;99.90
36132;DHT22;22185;48.738;9.324;2023-02-01T01:51:12;4.80;99.90
36132;DHT22;22185;48.738;9.324;2023-02-01T01:53:23;4.70;99.90
36132;DHT22;22185;48.738;9.324;2023-02-01T01:55:31;4.70;99.90
36132;DHT22;22185;48.738;9.324;2023-02-01T01:57:38;4.70;99.90
36132;DHT22;22185;48.738;9.324;2023-02-01T01:59:43;4.80;99.90
36132;DHT22;22185;48.738;9.324;2023-02-01T02:01:47;4.70;99.90
36132;DHT22;22185;48.738;9.324;2023-02-01T02:03:51;4.70;99.90
36132;DHT22;22185;48.738;9.324;2023-02-01T02:05:55;4.70;99.90
36132;DHT22;22185;48.738;9.324;2023-02-01T02:07:59;4.70;99.90
36132;DHT22;22185;48.738;9.324;2023-02-01T02:10:08;4.70;99.90
36132;DHT22;22185;48.738;9.324;2023-02-01T02:12:12;4.70;99.90
36132;DHT22;22185;48.738;9.324;2023-02-01T02:14:15;4.70;99.90
36132;DHT22;22185;48.738;9.324;2023-02-01T02:16:40;4.70;99.90
36132;DHT22;22185;48.738;9.324;2023-02-01T02:19:09;4.80;99.90
36132;DHT22;22185;48.738;9.324;2023-02-01T02:22:05;4.80;99.90
36132;DHT22;22185;48.738;9.324;2023-02-01T02:24:24;4.80;99.90
36132;DHT22;22185;48.738;9.324;2023-02-01T02:36:19;4.80;99.90
36132;DHT22;22185;48.738;9.324;2023-02-01T02:38:36;4.80;99.90
36132;DHT22;22185;48.738;9.324;2023-02-01T02:41:01;4.80;99.90
36132;DHT22;22185;48.738;9.324;2023-02-01T02:43:11;4.80;99.90
36132;DHT22;22185;48.738;9.324;2023-02-01T02:45:44;4.80;99.90
36132;DHT22;22185;48.738;9.324;2023-02-01T02:48:39;4.90;99.90
36132;DHT22;22185;48.738;9.324;2023-02-01T02:50:58;4.90;99.90
36132;DHT22;22185;48.738;9.324;2023-02-01T02:53:54;4.90;99.90
36132;DHT22;22185;48.738;9.324;2023-02-01T02:56:18;4.90;99.90
36132;DHT22;22185;48.738;9.324;2023-02-01T02:58:41;4.90;99.90
36132;DHT22;22185;48.738;9.324;2023-02-01T03:01:03;4.90;99.90
36132;DHT22;22185;48.738;9.324;2023-02-01T03:03:24;5.00;99.90
36132;DHT22;22185;48.738;9.324;2023-02-01T03:05:47;5.00;99.90
36132;DHT22;22185;48.738;9.324;2023-02-01T03:10:24;4.90;99.90
36132;DHT22;22185;48.738;9.324;2023-02-01T03:12:27;4.90;99.90
36132;DHT22;22185;48.738;9.324;2023-02-01T03:14:51;4.80;99.90
36132;DHT22;22185;48.738;9.324;2023-02-01T03:17:05;4.70;99.90
36132;DHT22;22185;48.738;9.324;2023-02-01T03:21:25;4.80;99.90
36132;DHT22;22185;48.738;9.324;2023-02-01T03:23:30;4.80;99.90
36132;DHT22;22185;48.738;9.324;2023-02-01T03:25:34;4.70;99.90
36132;DHT22;22185;48.738;9.324;2023-02-01T03:27:49;4.80;99.90
36132;DHT22;22185;48.738;9.324;2023-02-01T03:30:09;4.80;99.90
36132;DHT22;22185;48.738;9.324;2023-02-01T03:32:12;4.80;99.90
36132;DHT22;22185;48.738;9.324;2023-02-01T03:34:14;4.70;99.90
36132;DHT22;22185;48.738;9.324;2023-02-01T03:40:46;4.80;99.90
36132;DHT22;22185;48.738;9.324;2023-02-01T03:42:54;4.80;99.90
36132;DHT22;22185;48.738;9.324;2023-02-01T03:45:08;4.80;99.90
36132;DHT22;22185;48.738;9.324;2023-02-01T03:47:14;4.80;99.90
36132;DHT22;22185;48.738;9.324;2023-02-01T03:49:30;4.80;99.90
36132;DHT22;22185;48.738;9.324;2023-02-01T03:51:36;4.80;99.90
36132;DHT22;22185;48.738;9.324;2023-02-01T03:53:40;4.80;99.90
36132;DHT22;22185;48.738;9.324;2023-02-01T03:55:42;4.80;99.90
36132;DHT22;22185;48.738;9.324;2023-02-01T03:57:50;4.80;99.90
36132;DHT22;22185;48.738;9.324;2023-02-01T03:59:53;4.80;99.90
36132;DHT22;22185;48.738;9.324;2023-02-01T04:01:54;4.80;99.90
36132;DHT22;22185;48.738;9.324;2023-02-01T04:03:57;4.90;99.90
36132;DHT22;22185;48.738;9.324;2023-02-01T04:05:59;4.90;99.90
36132;DHT22;22185;48.738;9.324;2023-02-01T04:08:01;4.90;99.90
36132;DHT22;22185;48.738;9.324;2023-02-01T04:10:03;4.80;99.90
36132;DHT22;22185;48.738;9.324;2023-02-01T04:12:05;4.90;99.90
36132;DHT22;22185;48.738;9.324;2023-02-01T04:14:07;4.90;99.90
36132;DHT22;22185;48.738;9.324;2023-02-01T04:16:09;4.90;99.90
36132;DHT22;22185;48.738;9.324;2023-02-01T04:18:11;5.00;99.90
36132;DHT22;22185;48.738;9.324;2023-02-01T04:20:13;4.90;99.90
36132;DHT22;22185;48.738;9.324;2023-02-01T04:22:15;5.00;99.90
36132;DHT22;22185;48.738;9.324;2023-02-01T04:24:15;4.90;99.90
36132;DHT22;22185;48.738;9.324;2023-02-01T04:26:17;5.00;99.90
36132;DHT22;22185;48.738;9.324;2023-02-01T04:28:20;5.00;99.90
36132;DHT22;22185;48.738;9.324;2023-02-01T04:30:22;5.00;99.90
36132;DHT22;22185;48.738;9.324;2023-02-01T04:32:25;5.00;99.90
36132;DHT22;22185;48.738;9.324;2023-02-01T04:34:27;5.00;99.90
36132;DHT22;22185;48.738;9.324;2023-02-01T04:36:29;5.00;99.90
36132;DHT22;22185;48.738;9.324;2023-02-01T04:38:30;5.00;99.90
36132;DHT22;22185;48.738;9.324;2023-02-01T04:40:33;5.00;99.90
36132;DHT22;22185;48.738;9.324;2023-02-01T04:42:35;5.00;99.90
36132;DHT22;22185;48.738;9.324;2023-02-01T04:44:37;5.00;99.90
36132;DHT22;22185;48.738;9.324;2023-02-01T04:46:41;5.00;99.90
36132;DHT22;22185;48.738;9.324;2023-02-01T04:48:43;4.90;99.90
36132;DHT22;22185;48.738;9.324;2023-02-01T04:50:45;5.00;99.90
36132;DHT22;22185;48.738;9.324;2023-02-01T04:52:49;5.00;99.90
36132;DHT22;22185;48.738;9.324;2023-02-01T04:54:51;5.00;99.90
36132;DHT22;22185;48.738;9.324;2023-02-01T04:56:55;5.00;99.90
36132;DHT22;22185;48.738;9.324;2023-02-01T04:58:57;5.00;99.90
36132;DHT22;22185;48.738;9.324;2023-02-01T05:01:01;5.00;99.90
36132;DHT22;22185;48.738;9.324;2023-02-01T05:03:05;5.00;99.90
36132;DHT22;22185;48.738;9.324;2023-02-01T05:05:07;5.00;99.90
36132;DHT22;22185;48.738;9.324;2023-02-01T05:07:09;5.00;99.90
36132;DHT22;22185;48.738;9.324;2023-02-01T05:09:11;5.00;99.90
36132;DHT22;22185;48.738;9.324;2023-02-01T05:11:13;5.10;99.90
36132;DHT22;22185;48.738;9.324;2023-02-01T05:13:33;5.10;99.90
36132;DHT22;22185;48.738;9.324;2023-02-01T05:15:50;5.10;99.90
36132;DHT22;22185;48.738;9.324;2023-02-01T05:17:52;5.10;99.90
36132;DHT22;22185;48.738;9.324;2023-02-01T05:19:54;5.20;99.90
36132;DHT22;22185;48.738;9.324;2023-02-01T05:21:56;5.20;99.90
36132;DHT22;22185;48.738;9.324;2023-02-01T05:23:58;5.20;99.90
36132;DHT22;22185;48.738;9.324;2023-02-01T05:26:12;5.20;99.90
36132;DHT22;22185;48.738;9.324;2023-02-01T05:28:14;5.20;99.90
36132;DHT22;22185;48.738;9.324;2023-02-01T05:30:15;5.10;99.90
36132;DHT22;22185;48.738;9.324;2023-02-01T05:32:17;5.20;99.90
36132;DHT22;22185;48.738;9.324;2023-02-01T05:34:23;5.20;99.90
36132;DHT22;22185;48.738;9.324;2023-02-01T05:36:25;5.20;99.90
36132;DHT22;22185;48.738;9.324;2023-02-01T05:38:27;5.20;99.90
36132;DHT22;22185;48.738;9.324;2023-02-01T05:40:31;5.20;99.90
36132;DHT22;22185;48.738;9.324;2023-02-01T05:42:32;5.20;99.90
36132;DHT22;22185;48.738;9.324;2023-02-01T05:44:34;5.20;99.90
36132;DHT22;22185;48.738;9.324;2023-02-01T05:46:36;5.20;99.90
36132;DHT22;22185;48.738;9.324;2023-02-01T05:48:39;5.20;99.90
36132;DHT22;22185;48.738;9.324;2023-02-01T05:50:42;5.20;99.90
36132;DHT22;22185;48.738;9.324;2023-02-01T05:52:44;5.20;99.90
36132;DHT22;22185;48.738;9.324;2023-02-01T05:54:46;5.20;99.90
36132;DHT22;22185;48.738;9.324;2023-02-01T05:56:51;5.20;99.90
36132;DHT22;22185;48.738;9.324;2023-02-01T05:58:52;5.20;99.90
36132;DHT22;22185;48.738;9.324;2023-02-01T06:00:54;5.20;99.90
36132;DHT22;22185;48.738;9.324;2023-02-01T06:02:56;5.20;99.90
36132;DHT22;22185;48.738;9.324;2023-02-01T06:04:57;5.20;99.90
36132;DHT22;22185;48.738;9.324;2023-02-01T06:06:59;5.10;99.90
36132;DHT22;22185;48.738;9.324;2023-02-01T06:09:01;5.10;99.90
36132;DHT22;22185;48.738;9.324;2023-02-01T06:11:04;5.10;99.90
36132;DHT22;22185;48.738;9.324;2023-02-01T06:13:06;5.00;99.90
36132;DHT22;22185;48.738;9.324;2023-02-01T06:15:09;5.00;99.90
36132;DHT22;22185;48.738;9.324;2023-02-01T06:17:10;4.90;99.90
36132;DHT22;22185;48.738;9.324;2023-02-01T06:19:16;4.90;99.90
36132;DHT22;22185;48.738;9.324;2023-02-01T06:21:17;4.80;99.90
36132;DHT22;22185;48.738;9.324;2023-02-01T06:23:25;4.80;99.90
36132;DHT22;22185;48.738;9.324;2023-02-01T06:25:27;4.80;99.90
36132;DHT22;22185;48.738;9.324;2023-02-01T06:27:29;4.70;99.90
36132;DHT22;22185;48.738;9.324;2023-02-01T06:29:31;4.70;99.90
36132;DHT22;22185;48.738;9.324;2023-02-01T06:31:33;4.80;99.90
36132;DHT22;22185;48.738;9.324;2023-02-01T06:33:35;4.70;99.90
36132;DHT22;22185;48.738;9.324;2023-02-01T06:35:37;4.70;99.90
36132;DHT22;22185;48.738;9.324;2023-02-01T06:37:39;4.80;99.90
36132;DHT22;22185;48.738;9.324;2023-02-01T06:39:41;4.80;99.90
36132;DHT22;22185;48.738;9.324;2023-02-01T06:41:46;4.80;99.90
36132;DHT22;22185;48.738;9.324;2023-02-01T06:43:48;4.90;99.90
36132;DHT22;22185;48.738;9.324;2023-02-01T06:45:51;4.90;99.90
36132;DHT22;22185;48.738;9.324;2023-02-01T06:47:53;4.90;99.90
36132;DHT22;22185;48.738;9.324;2023-02-01T06:49:54;4.90;99.90
36132;DHT22;22185;48.738;9.324;2023-02-01T06:51:56;4.90;99.90
36132;DHT22;22185;48.738;9.324;2023-02-01T06:53:58;4.90;99.90
36132;DHT22;22185;48.738;9.324;2023-02-01T06:56:02;4.90;99.90
36132;DHT22;22185;48.738;9.324;2023-02-01T06:58:04;4.90;99.90
36132;DHT22;22185;48.738;9.324;2023-02-01T07:00:06;4.90;99.90
36132;DHT22;22185;48.738;9.324;2023-02-01T07:02:11;4.90;99.90
36132;DHT22;22185;48.738;9.324;2023-02-01T07:04:13;4.90;99.90
36132;DHT22;22185;48.738;9.324;2023-02-01T07:06:15;4.90;99.90
36132;DHT22;22185;48.738;9.324;2023-02-01T07:08:17;4.90;99.90
36132;DHT22;22185;48.738;9.324;2023-02-01T07:10:18;5.00;99.90
36132;DHT22;22185;48.738;9.324;2023-02-01T07:12:20;5.00;99.90
36132;DHT22;22185;48.738;9.324;2023-02-01T07:14:22;5.00;99.90
36132;DHT22;22185;48.738;9.324;2023-02-01T07:16:24;5.00;99.90
36132;DHT22;22185;48.738;9.324;2023-02-01T07:18:28;5.00;99.90
36132;DHT22;22185;48.738;9.324;2023-02-01T07:20:30;5.00;99.90
36132;DHT22;22185;48.738;9.324;2023-02-01T07:22:32;5.10;99.90
36132;DHT22;22185;48.738;9.324;2023-02-01T07:24:34;5.10;99.90
36132;DHT22;22185;48.738;9.324;2023-02-01T07:26:36;5.10;99.90
36132;DHT22;22185;48.738;9.324;2023-02-01T07:28:37;5.10;99.90
36132;DHT22;22185;48.738;9.324;2023-02-01T07:30:39;5.10;99.90
36132;DHT22;22185;48.738;9.324;2023-02-01T07:32:42;5.10;99.90
36132;DHT22;22185;48.738;9.324;2023-02-01T07:34:44;5.10;99.90
36132;DHT22;22185;48.738;9.324;2023-02-01T07:36:46;5.10;99.90
36132;DHT22;22185;48.738;9.324;2023-02-01T07:38:48;5.10;99.90
36132;DHT22;22185;48.738;9.324;2023-02-01T07:40:50;5.00;99.90
36132;DHT22;22185;48.738;9.324;2023-02-01T07:42:51;5.00;99.90
36132;DHT22;22185;48.738;9.324;2023-02-01T07:44:53;5.10;99.90
36132;DHT22;22185;48.738;9.324;2023-02-01T07:46:55;5.10;99.90
36132;DHT22;22185;48.738;9.324;2023-02-01T07:48:57;5.10;99.90
36132;DHT22;22185;48.738;9.324;2023-02-01T07:51:04;5.20;99.90
36132;DHT22;22185;48.738;9.324;2023-02-01T07:53:05;5.20;99.90
36132;DHT22;22185;48.738;9.324;2023-02-01T07:55:08;5.20;99.90
36132;DHT22;22185;48.738;9.324;2023-02-01T07:57:09;5.20;99.90
36132;DHT22;22185;48.738;9.324;2023-02-01T07:59:13;5.20;99.90
36132;DHT22;22185;48.738;9.324;2023-02-01T08:01:16;5.20;99.90
36132;DHT22;22185;48.738;9.324;2023-02-01T08:03:21;5.20;99.90
36132;DHT22;22185;48.738;9.324;2023-02-01T08:05:23;5.30;99.90
36132;DHT22;22185;48.738;9.324;2023-02-01T08:07:25;5.30;99.90
36132;DHT22;22185;48.738;9.324;2023-02-01T08:09:27;5.30;99.90
36132;DHT22;22185;48.738;9.324;2023-02-01T08:11:29;5.30;99.90
36132;DHT22;22185;48.738;9.324;2023-02-01T08:13:32;5.20;99.90
36132;DHT22;22185;48.738;9.324;2023-02-01T08:15:34;5.30;99.90
36132;DHT22;22185;48.738;9.324;2023-02-01T08:17:36;5.30;99.90
36132;DHT22;22185;48.738;9.324;2023-02-01T08:19:37;5.30;99.90
36132;DHT22;22185;48.738;9.324;2023-02-01T08:21:39;5.30;99.90
36132;DHT22;22185;48.738;9.324;2023-02-01T08:23:42;5.30;99.90
36132;DHT22;22185;48.738;9.324;2023-02-01T08:25:45;5.30;99.90
36132;DHT22;22185;48.738;9.324;2023-02-01T08:27:48;5.40;99.90
36132;DHT22;22185;48.738;9.324;2023-02-01T08:29:50;5.30;99.90
36132;DHT22;22185;48.738;9.324;2023-02-01T08:31:52;5.30;99.90
36132;DHT22;22185;48.738;9.324;2023-02-01T08:33:58;5.40;99.90
36132;DHT22;22185;48.738;9.324;2023-02-01T08:36:01;5.40;99.90
36132;DHT22;22185;48.738;9.324;2023-02-01T08:38:04;5.50;99.90
36132;DHT22;22185;48.738;9.324;2023-02-01T08:40:06;5.50;99.90
36132;DHT22;22185;48.738;9.324;2023-02-01T08:42:08;5.50;99.90
36132;DHT22;22185;48.738;9.324;2023-02-01T08:44:29;5.50;99.90
36132;DHT22;22185;48.738;9.324;2023-02-01T08:46:31;5.50;99.90
36132;DHT22;22185;48.738;9.324;2023-02-01T08:48:34;5.50;99.90
36132;DHT22;22185;48.738;9.324;2023-02-01T08:50:36;5.50;99.90
36132;DHT22;22185;48.738;9.324;2023-02-01T08:52:37;5.60;99.90
36132;DHT22;22185;48.738;9.324;2023-02-01T08:54:39;5.70;99.90
36132;DHT22;22185;48.738;9.324;2023-02-01T08:56:45;5.80;99.90
36132;DHT22;22185;48.738;9.324;2023-02-01T08:58:47;5.80;99.90
36132;DHT22;22185;48.738;9.324;2023-02-01T09:01:05;5.80;99.90
36132;DHT22;22185;48.738;9.324;2023-02-01T09:03:09;5.80;99.90
36132;DHT22;22185;48.738;9.324;2023-02-01T09:05:12;5.80;99.90
36132;DHT22;22185;48.738;9.324;2023-02-01T09:07:15;5.80;99.90
36132;DHT22;22185;48.738;9.324;2023-02-01T09:09:18;5.80;99.90
36132;DHT22;22185;48.738;9.324;2023-02-01T09:11:19;5.80;99.90
36132;DHT22;22185;48.738;9.324;2023-02-01T09:13:21;5.80;99.90
36132;DHT22;22185;48.738;9.324;2023-02-01T09:15:23;5.80;99.90
36132;DHT22;22185;48.738;9.324;2023-02-01T09:17:26;5.80;99.90
36132;DHT22;22185;48.738;9.324;2023-02-01T09:19:29;5.80;99.90
36132;DHT22;22185;48.738;9.324;2023-02-01T09:21:31;5.80;99.90
36132;DHT22;22185;48.738;9.324;2023-02-01T09:23:33;5.80;99.90
36132;DHT22;22185;48.738;9.324;2023-02-01T09:25:37;5.80;99.90
36132;DHT22;22185;48.738;9.324;2023-02-01T09:27:39;5.70;99.90
36132;DHT22;22185;48.738;9.324;2023-02-01T09:29:41;5.70;99.90
36132;DHT22;22185;48.738;9.324;2023-02-01T09:31:43;5.70;99.90
36132;DHT22;22185;48.738;9.324;2023-02-01T09:33:58;5.70;99.90
36132;DHT22;22185;48.738;9.324;2023-02-01T09:36:02;5.70;99.90
36132;DHT22;22185;48.738;9.324;2023-02-01T09:38:04;5.70;99.90
36132;DHT22;22185;48.738;9.324;2023-02-01T09:40:06;5.80;99.90
36132;DHT22;22185;48.738;9.324;2023-02-01T09:42:45;5.70;99.90
36132;DHT22;22185;48.738;9.324;2023-02-01T09:44:49;5.80;99.90
36132;DHT22;22185;48.738;9.324;2023-02-01T09:46:56;5.80;99.90
36132;DHT22;22185;48.738;9.324;2023-02-01T09:49:02;5.80;99.90
36132;DHT22;22185;48.738;9.324;2023-02-01T09:51:13;5.90;99.90
36132;DHT22;22185;48.738;9.324;2023-02-01T09:53:27;5.90;99.90
36132;DHT22;22185;48.738;9.324;2023-02-01T09:55:42;6.00;99.90
36132;DHT22;22185;48.738;9.324;2023-02-01T09:58:00;6.00;99.90
36132;DHT22;22185;48.738;9.324;2023-02-01T10:00:13;6.10;99.90
36132;DHT22;22185;48.738;9.324;2023-02-01T10:02:23;6.10;99.90
36132;DHT22;22185;48.738;9.324;2023-02-01T10:04:26;6.20;99.90
36132;DHT22;22185;48.738;9.324;2023-02-01T10:09:20;6.20;99.90
36132;DHT22;22185;48.738;9.324;2023-02-01T10:11:42;6.20;99.90
36132;DHT22;22185;48.738;9.324;2023-02-01T10:13:54;6.20;99.90
36132;DHT22;22185;48.738;9.324;2023-02-01T10:18:45;6.20;99.90
36132;DHT22;22185;48.738;9.324;2023-02-01T10:24:00;6.20;99.90
36132;DHT22;22185;48.738;9.324;2023-02-01T10:28:22;6.30;99.90
36132;DHT22;22185;48.738;9.324;2023-02-01T10:30:31;6.30;99.90
36132;DHT22;22185;48.738;9.324;2023-02-01T10:32:39;6.30;99.90
36132;DHT22;22185;48.738;9.324;2023-02-01T10:34:42;6.40;99.90
36132;DHT22;22185;48.738;9.324;2023-02-01T10:39:11;6.50;99.90
36132;DHT22;22185;48.738;9.324;2023-02-01T10:41:17;6.60;99.90
36132;DHT22;22185;48.738;9.324;2023-02-01T10:43:20;6.60;99.90
36132;DHT22;22185;48.738;9.324;2023-02-01T10:45:24;6.60;99.90
36132;DHT22;22185;48.738;9.324;2023-02-01T10:47:26;6.70;99.90
36132;DHT22;22185;48.738;9.324;2023-02-01T10:49:43;6.70;99.90
36132;DHT22;22185;48.738;9.324;2023-02-01T10:54:17;6.70;99.90
36132;DHT22;22185;48.738;9.324;2023-02-01T10:56:26;6.70;99.90
36132;DHT22;22185;48.738;9.324;2023-02-01T10:58:31;6.70;99.90
36132;DHT22;22185;48.738;9.324;2023-02-01T11:01:00;6.70;99.90
36132;DHT22;22185;48.738;9.324;2023-02-01T11:05:44;6.90;99.90
36132;DHT22;22185;48.738;9.324;2023-02-01T11:07:49;6.70;99.90
36132;DHT22;22185;48.738;9.324;2023-02-01T11:09:54;6.80;99.90
36132;DHT22;22185;48.738;9.324;2023-02-01T11:12:00;6.80;99.90
36132;DHT22;22185;48.738;9.324;2023-02-01T11:14:13;6.70;99.90
36132;DHT22;22185;48.738;9.324;2023-02-01T11:16:18;6.80;99.90
36132;DHT22;22185;48.738;9.324;2023-02-01T11:18:27;6.80;99.90
36132;DHT22;22185;48.738;9.324;2023-02-01T11:20:39;6.80;99.90
36132;DHT22;22185;48.738;9.324;2023-02-01T11:23:14;6.90;99.90
36132;DHT22;22185;48.738;9.324;2023-02-01T11:25:17;6.90;99.90
36132;DHT22;22185;48.738;9.324;2023-02-01T11:27:21;6.90;99.90
36132;DHT22;22185;48.738;9.324;2023-02-01T11:29:40;6.90;99.90
36132;DHT22;22185;48.738;9.324;2023-02-01T11:31:44;6.90;99.90
36132;DHT22;22185;48.738;9.324;2023-02-01T11:33:50;7.00;99.90
36132;DHT22;22185;48.738;9.324;2023-02-01T11:35:53;6.90;99.90
36132;DHT22;22185;48.738;9.324;2023-02-01T11:37:58;6.90;99.90
36132;DHT22;22185;48.738;9.324;2023-02-01T11:40:25;7.00;99.90
36132;DHT22;22185;48.738;9.324;2023-02-01T11:42:29;7.00;99.90
36132;DHT22;22185;48.738;9.324;2023-02-01T11:44:36;7.10;99.90
36132;DHT22;22185;48.738;9.324;2023-02-01T11:46:39;7.10;99.90
36132;DHT22;22185;48.738;9.324;2023-02-01T11:48:41;7.20;99.90
36132;DHT22;22185;48.738;9.324;2023-02-01T11:53:26;7.30;99.90
36132;DHT22;22185;48.738;9.324;2023-02-01T11:56:08;7.30;99.90
36132;DHT22;22185;48.738;9.324;2023-02-01T12:03:32;7.20;99.90
36132;DHT22;22185;48.738;9.324;2023-02-01T12:08:21;7.40;99.90
36132;DHT22;22185;48.738;9.324;2023-02-01T12:10:44;7.40;99.90
36132;DHT22;22185;48.738;9.324;2023-02-01T12:17:40;7.30;99.90
36132;DHT22;22185;48.738;9.324;2023-02-01T12:35:44;7.20;99.90
36132;DHT22;22185;48.738;9.324;2023-02-01T12:37:58;7.20;99.90
36132;DHT22;22185;48.738;9.324;2023-02-01T12:42:36;7.10;99.90
36132;DHT22;22185;48.738;9.324;2023-02-01T12:44:50;7.10;99.90
36132;DHT22;22185;48.738;9.324;2023-02-01T12:47:03;7.10;99.90
36132;DHT22;22185;48.738;9.324;2023-02-01T12:51:36;7.10;99.90
36132;DHT22;22185;48.738;9.324;2023-02-01T12:54:09;7.10;99.90
36132;DHT22;22185;48.738;9.324;2023-02-01T12:56:29;7.10;99.90
36132;DHT22;22185;48.738;9.324;2023-02-01T12:59:05;7.10;99.90
36132;DHT22;22185;48.738;9.324;2023-02-01T13:01:30;7.10;99.90
36132;DHT22;22185;48.738;9.324;2023-02-01T13:05:50;7.00;99.90
36132;DHT22;22185;48.738;9.324;2023-02-01T13:08:09;7.00;99.90
36132;DHT22;22185;48.738;9.324;2023-02-01T13:12:43;7.00;99.90
36132;DHT22;22185;48.738;9.324;2023-02-01T13:14:57;7.00;99.90
36132;DHT22;22185;48.738;9.324;2023-02-01T13:19:14;6.90;99.90
36132;DHT22;22185;48.738;9.324;2023-02-01T13:21:24;6.90;99.90
36132;DHT22;22185;48.738;9.324;2023-02-01T13:23:33;6.90;99.90
36132;DHT22;22185;48.738;9.324;2023-02-01T13:25:43;6.90;99.90
36132;DHT22;22185;48.738;9.324;2023-02-01T13:27:48;6.90;99.90
36132;DHT22;22185;48.738;9.324;2023-02-01T13:29:59;6.90;99.90
36132;DHT22;22185;48.738;9.324;2023-02-01T13:41:29;6.90;99.90
36132;DHT22;22185;48.738;9.324;2023-02-01T13:43:32;6.90;99.90
36132;DHT22;22185;48.738;9.324;2023-02-01T13:45:42;6.90;99.90
36132;DHT22;22185;48.738;9.324;2023-02-01T13:47:46;6.90;99.90
36132;DHT22;22185;48.738;9.324;2023-02-01T13:49:53;6.90;99.90
36132;DHT22;22185;48.738;9.324;2023-02-01T13:51:57;6.90;99.90
36132;DHT22;22185;48.738;9.324;2023-02-01T13:53:59;6.90;99.90
36132;DHT22;22185;48.738;9.324;2023-02-01T13:56:11;6.80;99.90
36132;DHT22;22185;48.738;9.324;2023-02-01T14:04:47;6.70;99.90
36132;DHT22;22185;48.738;9.324;2023-02-01T14:06:52;6.70;99.90
36132;DHT22;22185;48.738;9.324;2023-02-01T14:13:46;6.70;99.90
36132;DHT22;22185;48.738;9.324;2023-02-01T14:20:43;6.60;99.90
36132;DHT22;22185;48.738;9.324;2023-02-01T14:22:47;6.60;99.90
36132;DHT22;22185;48.738;9.324;2023-02-01T14:24:55;6.60;99.90
36132;DHT22;22185;48.738;9.324;2023-02-01T14:27:13;6.60;99.90
36132;DHT22;22185;48.738;9.324;2023-02-01T14:29:21;6.60;99.90
36132;DHT22;22185;48.738;9.324;2023-02-01T14:36:16;6.60;99.90
36132;DHT22;22185;48.738;9.324;2023-02-01T14:38:20;6.60;99.90
36132;DHT22;22185;48.738;9.324;2023-02-01T14:40:27;6.60;99.90
36132;DHT22;22185;48.738;9.324;2023-02-01T14:44:43;6.60;99.90
36132;DHT22;22185;48.738;9.324;2023-02-01T14:49:06;6.60;99.90
36132;DHT22;22185;48.738;9.324;2023-02-01T14:51:11;6.60;99.90
36132;DHT22;22185;48.738;9.324;2023-02-01T14:53:21;6.60;99.90
36132;DHT22;22185;48.738;9.324;2023-02-01T14:55:30;6.60;99.90
36132;DHT22;22185;48.738;9.324;2023-02-01T14:57:37;6.60;99.90
36132;DHT22;22185;48.738;9.324;2023-02-01T14:59:41;6.60;99.90
36132;DHT22;22185;48.738;9.324;2023-02-01T15:01:50;6.60;99.90
36132;DHT22;22185;48.738;9.324;2023-02-01T15:04:13;6.60;99.90
36132;DHT22;22185;48.738;9.324;2023-02-01T15:08:28;6.60;99.90
36132;DHT22;22185;48.738;9.324;2023-02-01T15:10:32;6.70;99.90
36132;DHT22;22185;48.738;9.324;2023-02-01T15:12:40;6.70;99.90
36132;DHT22;22185;48.738;9.324;2023-02-01T15:15:23;6.70;99.90
36132;DHT22;22185;48.738;9.324;2023-02-01T15:19:55;6.60;99.90
36132;DHT22;22185;48.738;9.324;2023-02-01T15:21:58;6.60;99.90
36132;DHT22;22185;48.738;9.324;2023-02-01T15:24:14;6.70;99.90
36132;DHT22;22185;48.738;9.324;2023-02-01T15:26:27;6.80;99.90
36132;DHT22;22185;48.738;9.324;2023-02-01T15:28:30;6.90;99.90
36132;DHT22;22185;48.738;9.324;2023-02-01T15:30:34;6.80;99.90
36132;DHT22;22185;48.738;9.324;2023-02-01T15:32:39;6.90;99.90
36132;DHT22;22185;48.738;9.324;2023-02-01T15:34:49;6.90;99.90
36132;DHT22;22185;48.738;9.324;2023-02-01T15:36:51;6.90;99.90